createdAt,value
2023-05-02T00:01:22.752Z,56.31
2023-05-02T00:03:53.189Z,56.18
2023-05-02T00:06:23.337Z,56.34
2023-05-02T00:08:53.585Z,56.36
2023-05-02T00:11:25.462Z,56.33
2023-05-02T00:13:55.601Z,56.34
2023-05-02T00:16:28.401Z,56.21
2023-05-02T00:18:58.827Z,56.37
2023-05-02T00:21:29.535Z,56.55
2023-05-02T00:24:00.513Z,56.55
2023-05-02T00:26:31.244Z,56.64
2023-05-02T00:29:01.503Z,56.58
2023-05-02T00:31:35.977Z,56.77
2023-05-02T00:34:06.732Z,57.23
2023-05-02T00:36:37.096Z,56.76
2023-05-02T00:39:08.174Z,56.88
2023-05-02T00:41:38.710Z,56.71
2023-05-02T00:44:09.210Z,56.85
2023-05-02T00:46:42.243Z,56.92
2023-05-02T00:49:12.737Z,56.93
2023-05-02T00:51:43.719Z,57.08
2023-05-02T00:54:14.720Z,57.06
2023-05-02T00:56:45.144Z,57.14
2023-05-02T00:59:16.749Z,56.95
2023-05-02T01:02:01.404Z,57.05
2023-05-02T01:04:43.139Z,57.20
2023-05-02T01:07:25.541Z,57.22
2023-05-02T01:10:12.735Z,57.38
2023-05-02T01:12:46.393Z,57.54
2023-05-02T01:15:22.076Z,57.41
2023-05-02T01:17:57.699Z,57.65
2023-05-02T01:20:32.237Z,57.76
2023-05-02T01:23:10.168Z,57.71
2023-05-02T01:25:59.601Z,57.76
2023-05-02T01:28:40.706Z,57.87
2023-05-02T01:31:15.377Z,57.83
2023-05-02T01:33:47.832Z,57.89
2023-05-02T01:36:22.824Z,57.93
2023-05-02T01:38:54.600Z,57.79
2023-05-02T01:41:27.994Z,57.82
2023-05-02T01:44:01.039Z,57.76
2023-05-02T01:46:36.927Z,58.18
2023-05-02T01:49:11.031Z,57.84
2023-05-02T01:51:48.991Z,57.94
2023-05-02T01:54:20.773Z,58.16
2023-05-02T01:56:51.406Z,58.03
2023-05-02T01:59:24.009Z,58.59
2023-05-02T02:01:57.999Z,58.58
2023-05-02T02:04:29.498Z,58.67
2023-05-02T02:07:04.377Z,58.51
2023-05-02T02:09:34.806Z,59.02
2023-05-02T02:12:10.041Z,58.71
2023-05-02T02:14:42.403Z,58.97
2023-05-02T02:17:28.661Z,59.04
2023-05-02T02:20:00.706Z,58.65
2023-05-02T02:22:32.169Z,58.61
2023-05-02T02:25:02.637Z,58.58
2023-05-02T02:27:32.922Z,58.30
2023-05-02T02:30:04.589Z,58.35
2023-05-02T02:32:37.358Z,58.37
2023-05-02T02:35:08.871Z,58.93
2023-05-02T02:37:44.555Z,58.91
2023-05-02T02:40:23.857Z,58.60
2023-05-02T02:43:05.580Z,59.32
2023-05-02T02:45:42.007Z,59.44
2023-05-02T02:48:28.067Z,59.42
2023-05-02T02:51:06.484Z,59.07
2023-05-02T02:53:41.212Z,59.29
2023-05-02T02:56:19.126Z,59.60
2023-05-02T02:58:57.622Z,59.61
2023-05-02T03:01:32.092Z,60.29
2023-05-02T03:04:09.168Z,60.60
2023-05-02T03:06:42.600Z,60.91
2023-05-02T03:09:19.416Z,60.80
2023-05-02T03:11:52.027Z,60.68
2023-05-02T03:14:22.251Z,60.71
2023-05-02T03:16:53.207Z,60.21
2023-05-02T03:19:29.912Z,60.09
2023-05-02T03:22:02.289Z,60.55
2023-05-02T03:24:34.088Z,60.60
2023-05-02T03:27:15.920Z,60.47
2023-05-02T03:29:48.545Z,60.35
2023-05-02T03:32:18.994Z,60.69
2023-05-02T03:34:52.603Z,60.48
2023-05-02T03:37:22.609Z,60.70
2023-05-02T03:39:52.857Z,60.53
2023-05-02T03:42:25.677Z,60.47
2023-05-02T03:44:56.583Z,60.20
2023-05-02T03:47:28.483Z,60.50
2023-05-02T03:50:03.625Z,60.96
2023-05-02T03:52:37.710Z,60.90
2023-05-02T03:55:09.231Z,60.58
2023-05-02T03:57:40.868Z,60.68
2023-05-02T04:00:14.584Z,60.78
2023-05-02T04:02:52.235Z,60.73
2023-05-02T04:05:28.877Z,60.92
2023-05-02T04:07:59.918Z,60.71
2023-05-02T04:10:30.235Z,61.10
2023-05-02T04:13:04.030Z,61.37
2023-05-02T04:15:36.224Z,62.03
2023-05-02T04:18:07.408Z,62.40
2023-05-02T04:20:41.633Z,62.74
2023-05-02T04:23:11.897Z,63.37
2023-05-02T04:25:42.042Z,64.20
2023-05-02T04:28:12.951Z,63.53
2023-05-02T04:30:43.356Z,63.46
2023-05-02T04:33:14.887Z,63.33
2023-05-02T04:35:47.875Z,63.14
2023-05-02T04:38:19.969Z,63.24
2023-05-02T04:40:54.234Z,63.30
2023-05-02T04:43:31.450Z,64.06
2023-05-02T04:46:04.865Z,65.11
2023-05-02T04:48:42.295Z,71.92
2023-05-02T04:51:17.061Z,67.17
2023-05-02T04:53:50.707Z,67.06
2023-05-02T04:56:22.002Z,66.46
2023-05-02T04:58:52.796Z,66.84
2023-05-02T05:01:24.322Z,68.46
2023-05-02T05:03:56.984Z,67.59
2023-05-02T05:06:30.037Z,67.14
2023-05-02T05:09:00.653Z,67.06
2023-05-02T05:11:30.907Z,67.14
2023-05-02T05:14:01.143Z,67.77
2023-05-02T05:16:32.426Z,67.68
2023-05-02T05:19:03.143Z,67.48
2023-05-02T05:21:38.290Z,67.79
2023-05-02T05:24:09.619Z,68.31
2023-05-02T05:26:40.842Z,68.78
2023-05-02T05:29:14.904Z,69.43
2023-05-02T05:31:46.055Z,68.96
2023-05-02T05:34:19.146Z,68.59
2023-05-02T05:36:53.367Z,68.53
2023-05-02T05:39:25.775Z,68.75
2023-05-02T05:41:59.259Z,69.24
2023-05-02T05:44:30.190Z,68.50
2023-05-02T05:47:02.803Z,68.31
2023-05-02T05:49:38.455Z,67.64
2023-05-02T05:52:15.978Z,67.38
2023-05-02T05:54:46.387Z,67.37
2023-05-02T05:57:17.055Z,67.00
2023-05-02T05:59:47.379Z,67.26
2023-05-02T06:02:19.949Z,67.19
2023-05-02T06:04:50.737Z,66.70
2023-05-02T06:07:26.556Z,66.55
2023-05-02T06:09:56.676Z,66.39
2023-05-02T06:12:27.203Z,66.81
2023-05-02T06:14:57.414Z,66.86
2023-05-02T06:17:27.920Z,66.45
2023-05-02T06:19:58.522Z,66.60
2023-05-02T06:22:31.479Z,66.06
2023-05-02T06:25:01.985Z,66.32
2023-05-02T06:27:33.675Z,66.35
2023-05-02T06:30:04.961Z,66.04
2023-05-02T06:32:35.538Z,66.32
2023-05-02T06:35:05.758Z,66.63
2023-05-02T06:37:39.275Z,65.81
2023-05-02T06:40:11.209Z,66.05
2023-05-02T06:42:41.454Z,65.38
2023-05-02T06:45:12.414Z,65.51
2023-05-02T06:47:42.489Z,65.97
2023-05-02T06:50:14.433Z,66.14
2023-05-02T06:52:47.184Z,65.78
2023-05-02T06:55:17.398Z,65.92
2023-05-02T06:57:47.443Z,65.50
2023-05-02T07:00:21.874Z,64.89
2023-05-02T07:02:52.651Z,66.99
2023-05-02T07:05:22.533Z,64.33
2023-05-02T07:07:57.713Z,64.02
2023-05-02T07:10:27.902Z,63.33
2023-05-02T07:13:00.889Z,63.46
2023-05-02T07:15:30.955Z,63.54
2023-05-02T07:18:01.267Z,63.33
2023-05-02T07:20:31.681Z,63.06
2023-05-02T07:23:05.668Z,63.22
2023-05-02T07:25:36.867Z,63.31
2023-05-02T07:28:07.316Z,63.17
2023-05-02T07:30:37.443Z,63.04
2023-05-02T07:33:07.786Z,63.12
2023-05-02T07:35:37.868Z,62.47
2023-05-02T07:38:10.559Z,61.99
2023-05-02T07:40:40.972Z,62.23
2023-05-02T07:43:11.458Z,62.33
2023-05-02T07:45:41.620Z,62.30
2023-05-02T07:48:11.882Z,62.71
2023-05-02T07:50:42.145Z,62.76
2023-05-02T07:53:15.153Z,62.31
2023-05-02T07:55:45.250Z,62.69
2023-05-02T07:58:15.431Z,62.79
2023-05-02T08:00:45.554Z,62.28
2023-05-02T08:03:15.717Z,62.37
2023-05-02T08:05:45.833Z,61.97
2023-05-02T08:08:18.560Z,61.69
2023-05-02T08:10:50.613Z,61.57
2023-05-02T08:13:21.205Z,61.23
2023-05-02T08:15:52.154Z,60.91
2023-05-02T08:18:24.041Z,60.73
2023-05-02T08:20:54.643Z,60.57
2023-05-02T08:23:27.391Z,60.60
2023-05-02T08:25:57.528Z,60.85
2023-05-02T08:28:27.913Z,60.71
2023-05-02T08:30:58.075Z,60.84
2023-05-02T08:33:28.420Z,60.40
2023-05-02T08:35:58.328Z,60.04
2023-05-02T08:38:31.121Z,60.63
2023-05-02T08:41:01.210Z,60.42
2023-05-02T08:43:32.666Z,60.57
2023-05-02T08:46:05.069Z,60.36
2023-05-02T08:48:36.250Z,60.54
2023-05-02T08:51:07.192Z,60.21
2023-05-02T08:53:40.997Z,60.01
2023-05-02T08:56:12.165Z,60.13
2023-05-02T08:58:43.284Z,60.13
2023-05-02T09:01:16.242Z,60.39
2023-05-02T09:03:47.283Z,60.10
2023-05-02T09:06:19.360Z,60.03
2023-05-02T09:08:53.680Z,59.83
2023-05-02T09:11:24.377Z,60.23
2023-05-02T09:13:56.215Z,60.19
2023-05-02T09:16:27.632Z,60.52
2023-05-02T09:18:59.034Z,60.80
2023-05-02T09:21:37.897Z,60.76
2023-05-02T09:24:21.260Z,60.30
2023-05-02T09:27:03.124Z,60.26
2023-05-02T09:29:36.506Z,59.80
2023-05-02T09:32:07.226Z,59.24
2023-05-02T09:34:37.830Z,59.50
2023-05-02T09:37:08.538Z,59.14
2023-05-02T09:39:41.101Z,57.92
2023-05-02T09:42:11.106Z,57.51
2023-05-02T09:44:41.394Z,57.52
2023-05-02T09:47:11.612Z,57.69
2023-05-02T09:49:46.686Z,57.90
2023-05-02T09:52:18.546Z,58.13
2023-05-02T09:54:52.835Z,57.61
2023-05-02T09:57:23.534Z,57.30
2023-05-02T10:00:03.657Z,57.35
2023-05-02T10:02:43.644Z,57.11
2023-05-02T10:05:14.763Z,56.66
2023-05-02T10:07:44.996Z,55.89
2023-05-02T10:10:20.489Z,56.14
2023-05-02T10:12:53.658Z,55.97
2023-05-02T10:15:28.227Z,56.27
2023-05-02T10:18:01.321Z,56.33
2023-05-02T10:20:38.868Z,55.88
2023-05-02T10:23:09.923Z,56.11
2023-05-02T10:25:43.349Z,56.45
2023-05-02T10:28:13.782Z,56.11
2023-05-02T10:30:44.716Z,56.68
2023-05-02T10:33:19.244Z,56.62
2023-05-02T10:35:50.605Z,57.28
2023-05-02T10:38:24.967Z,56.87
2023-05-02T10:40:59.197Z,53.05
2023-05-02T10:43:34.038Z,56.75
2023-05-02T10:46:05.229Z,56.50
2023-05-02T10:48:35.525Z,56.46
2023-05-02T10:51:06.046Z,55.85
2023-05-02T10:53:37.807Z,55.52
2023-05-02T10:56:29.399Z,55.38
2023-05-02T10:59:32.283Z,52.47
2023-05-02T11:02:03.578Z,55.28
2023-05-02T11:05:04.628Z,55.56
2023-05-02T11:07:39.841Z,55.42
2023-05-02T11:10:28.271Z,55.05
2023-05-02T11:13:02.052Z,55.68
2023-05-02T11:16:00.089Z,53.24
2023-05-02T11:18:30.092Z,55.02
2023-05-02T11:21:33.061Z,52.70
2023-05-02T11:24:33.208Z,54.16
2023-05-02T11:27:36.009Z,53.85
2023-05-02T11:30:39.208Z,53.64
2023-05-02T11:33:18.026Z,53.59
2023-05-02T11:35:51.837Z,53.87
2023-05-02T11:38:24.752Z,53.84
2023-05-02T11:40:57.087Z,54.12
2023-05-02T11:43:31.495Z,54.32
2023-05-02T11:46:06.251Z,53.33
2023-05-02T11:48:36.434Z,53.75
2023-05-02T11:51:07.731Z,54.26
2023-05-02T11:53:43.717Z,54.09
2023-05-02T11:56:13.837Z,53.67
2023-05-02T11:58:44.522Z,53.25
2023-05-02T12:01:18.453Z,54.09
2023-05-02T12:03:49.706Z,54.35
2023-05-02T12:06:21.652Z,54.82
2023-05-02T12:08:55.798Z,54.20
2023-05-02T12:11:27.078Z,53.92
2023-05-02T12:13:57.848Z,53.02
2023-05-02T12:16:31.109Z,53.48
2023-05-02T12:19:01.521Z,53.76
2023-05-02T12:21:33.303Z,53.89
2023-05-02T12:24:04.142Z,53.22
2023-05-02T12:26:34.519Z,53.01
2023-05-02T12:29:08.385Z,53.31
2023-05-02T12:31:41.514Z,52.88
2023-05-02T12:34:11.789Z,52.90
2023-05-02T12:36:47.770Z,52.97
2023-05-02T12:39:17.883Z,53.59
2023-05-02T12:41:48.069Z,53.00
2023-05-02T12:44:18.940Z,53.23
2023-05-02T12:47:03.515Z,50.94
2023-05-02T12:49:33.810Z,46.76
2023-05-02T12:52:04.213Z,52.92
2023-05-02T12:54:34.405Z,53.18
2023-05-02T12:57:08.406Z,53.13
2023-05-02T12:59:41.372Z,52.76
2023-05-02T13:02:15.091Z,52.24
2023-05-02T13:04:45.165Z,52.26
2023-05-02T13:07:15.231Z,52.52
2023-05-02T13:09:45.275Z,52.22
2023-05-02T13:12:15.511Z,51.78
2023-05-02T13:14:45.623Z,51.12
2023-05-02T13:17:18.660Z,50.92
2023-05-02T13:20:00.326Z,51.20
2023-05-02T13:22:32.092Z,50.66
2023-05-02T13:25:02.400Z,50.80
2023-05-02T13:27:34.311Z,50.96
2023-05-02T13:30:10.426Z,51.51
2023-05-02T13:32:43.620Z,51.90
2023-05-02T13:35:16.196Z,51.23
2023-05-02T13:37:46.595Z,52.08
2023-05-02T13:40:20.075Z,51.68
2023-05-02T13:42:50.227Z,51.89
2023-05-02T13:45:20.810Z,52.22
2023-05-02T13:47:54.231Z,52.10
2023-05-02T13:50:24.382Z,52.41
2023-05-02T13:52:54.504Z,52.53
2023-05-02T13:55:27.110Z,51.73
2023-05-02T13:57:58.618Z,51.83
2023-05-02T14:00:29.439Z,51.54
2023-05-02T14:03:02.164Z,51.83
2023-05-02T14:05:32.205Z,51.89
2023-05-02T14:08:02.144Z,52.11
2023-05-02T14:10:32.255Z,51.90
2023-05-02T14:13:02.279Z,51.94
2023-05-02T14:15:32.491Z,51.69
2023-05-02T14:18:05.178Z,51.58
2023-05-02T14:20:35.836Z,51.65
2023-05-02T14:23:07.568Z,51.57
2023-05-02T14:25:39.438Z,51.45
2023-05-02T14:28:11.233Z,51.69
2023-05-02T14:30:45.169Z,51.47
2023-05-02T14:33:25.222Z,51.16
2023-05-02T14:35:56.241Z,51.43
2023-05-02T14:38:27.072Z,51.73
2023-05-02T14:40:58.663Z,51.96
2023-05-02T14:43:30.678Z,52.22
2023-05-02T14:46:04.701Z,52.62
2023-05-02T14:48:38.581Z,52.98
2023-05-02T14:51:15.446Z,52.71
2023-05-02T14:53:45.820Z,52.99
2023-05-02T14:56:18.404Z,53.21
2023-05-02T14:58:48.544Z,52.83
2023-05-02T15:01:19.945Z,53.17
2023-05-02T15:04:06.075Z,52.90
2023-05-02T15:06:38.469Z,52.98
2023-05-02T15:09:09.143Z,52.65
2023-05-02T15:11:39.171Z,52.53
2023-05-02T15:14:09.508Z,52.54
2023-05-02T15:16:39.934Z,52.39
2023-05-02T15:19:12.794Z,52.73
2023-05-02T15:21:42.850Z,52.75
2023-05-02T15:24:13.211Z,52.75
2023-05-02T15:26:43.561Z,52.36
2023-05-02T15:29:13.766Z,52.72
2023-05-02T15:31:43.849Z,52.80
2023-05-02T15:34:16.740Z,52.93
2023-05-02T15:36:46.799Z,52.86
2023-05-02T15:39:18.190Z,53.02
2023-05-02T15:41:48.312Z,52.84
2023-05-02T15:44:18.522Z,52.75
2023-05-02T15:46:49.652Z,52.46
2023-05-02T15:49:24.653Z,52.49
2023-05-02T15:51:54.901Z,52.54
2023-05-02T15:54:25.029Z,52.58
2023-05-02T15:56:55.278Z,52.67
2023-05-02T15:59:28.428Z,52.69
2023-05-02T16:01:59.456Z,53.09
2023-05-02T16:04:35.941Z,53.30
2023-05-02T16:07:06.013Z,53.23
2023-05-02T16:09:36.222Z,53.34
2023-05-02T16:12:07.462Z,53.46
2023-05-02T16:14:38.422Z,53.14
2023-05-02T16:17:08.460Z,53.12
2023-05-02T16:19:41.147Z,53.39
2023-05-02T16:22:11.641Z,53.03
2023-05-02T16:24:41.830Z,53.16
2023-05-02T16:27:13.555Z,53.18
2023-05-02T16:29:43.704Z,53.18
2023-05-02T16:32:13.753Z,53.20
2023-05-02T16:34:46.336Z,52.93
2023-05-02T16:37:16.539Z,53.01
2023-05-02T16:39:52.709Z,52.64
2023-05-02T16:42:22.686Z,53.12
2023-05-02T16:44:52.843Z,53.42
2023-05-02T16:47:22.926Z,53.53
2023-05-02T16:49:58.724Z,53.53
2023-05-02T16:52:29.815Z,53.45
2023-05-02T16:55:00.034Z,53.62
2023-05-02T16:57:30.146Z,53.48
2023-05-02T17:00:03.460Z,53.34
2023-05-02T17:02:34.386Z,53.66
2023-05-02T17:05:07.720Z,53.61
2023-05-02T17:07:37.997Z,53.81
2023-05-02T17:10:09.781Z,53.97
2023-05-02T17:12:39.788Z,54.05
2023-05-02T17:15:13.790Z,54.23
2023-05-02T17:17:45.747Z,54.26
2023-05-02T17:20:20.678Z,54.05
2023-05-02T17:22:51.432Z,54.15
2023-05-02T17:25:22.943Z,54.28
2023-05-02T17:27:52.995Z,54.20
2023-05-02T17:30:25.314Z,54.56
2023-05-02T17:32:55.675Z,54.38
2023-05-02T17:35:30.164Z,54.59
2023-05-02T17:38:00.505Z,54.43
2023-05-02T17:40:32.578Z,54.71
2023-05-02T17:43:02.835Z,54.64
2023-05-02T17:45:36.613Z,54.72
2023-05-02T17:48:06.859Z,54.85
2023-05-02T17:50:42.207Z,54.82
2023-05-02T17:53:13.299Z,54.82
2023-05-02T17:55:43.565Z,54.80
2023-05-02T17:58:13.861Z,54.92
2023-05-02T18:00:43.923Z,54.97
2023-05-02T18:03:14.447Z,54.95
2023-05-02T18:05:47.949Z,55.20
2023-05-02T18:08:17.950Z,55.05
2023-05-02T18:10:48.195Z,55.28
2023-05-02T18:13:18.205Z,55.07
2023-05-02T18:15:49.449Z,55.10
2023-05-02T18:18:19.509Z,55.12
2023-05-02T18:20:52.308Z,54.86
2023-05-02T18:23:24.716Z,55.07
2023-05-02T18:26:00.759Z,55.13
2023-05-02T18:28:30.911Z,54.92
2023-05-02T18:31:01.563Z,55.05
2023-05-02T18:33:31.954Z,55.02
2023-05-02T18:36:06.308Z,54.81
2023-05-02T18:38:37.700Z,55.19
2023-05-02T18:41:09.555Z,55.14
2023-05-02T18:43:39.702Z,55.25
2023-05-02T18:46:12.286Z,55.38
2023-05-02T18:48:42.676Z,55.36
2023-05-02T18:51:16.346Z,55.53
2023-05-02T18:53:46.416Z,55.57
2023-05-02T18:56:17.193Z,55.73
2023-05-02T18:58:47.183Z,55.88
2023-05-02T19:01:20.358Z,56.01
2023-05-02T19:03:50.690Z,56.27
2023-05-02T19:06:23.596Z,56.63
2023-05-02T19:08:53.866Z,56.64
2023-05-02T19:11:23.963Z,56.78
2023-05-02T19:13:56.893Z,56.95
2023-05-02T19:16:27.861Z,57.05
2023-05-02T19:19:00.256Z,56.79
2023-05-02T19:21:34.198Z,57.14
2023-05-02T19:24:06.597Z,56.96
2023-05-02T19:26:36.614Z,57.01
2023-05-02T19:29:06.736Z,56.96
2023-05-02T19:31:38.982Z,57.21
2023-05-02T19:34:09.198Z,57.17
2023-05-02T19:36:42.124Z,56.88
2023-05-02T19:39:13.374Z,57.07
2023-05-02T19:41:43.352Z,57.17
2023-05-02T19:44:16.108Z,57.36
2023-05-02T19:46:46.416Z,57.30
2023-05-02T19:49:16.897Z,57.45
2023-05-02T19:51:49.736Z,57.69
2023-05-02T19:54:19.774Z,57.80
2023-05-02T19:56:50.622Z,57.63
2023-05-02T19:59:21.054Z,57.99
2023-05-02T20:01:51.229Z,58.22
2023-05-02T20:04:21.446Z,58.07
2023-05-02T20:06:54.496Z,58.06
2023-05-02T20:09:25.877Z,58.09
2023-05-02T20:11:59.587Z,58.04
2023-05-02T20:14:29.812Z,57.99
2023-05-02T20:17:01.755Z,58.14
2023-05-02T20:19:32.936Z,58.28
2023-05-02T20:22:05.660Z,58.46
2023-05-02T20:24:35.648Z,58.26
2023-05-02T20:27:05.976Z,58.42
2023-05-02T20:29:36.126Z,58.60
2023-05-02T20:32:06.362Z,58.33
2023-05-02T20:34:37.045Z,58.75
2023-05-02T20:37:11.089Z,58.78
2023-05-02T20:39:41.060Z,58.60
2023-05-02T20:42:11.704Z,58.75
2023-05-02T20:44:42.226Z,58.89
2023-05-02T20:47:12.599Z,58.91
2023-05-02T20:49:42.552Z,58.96
2023-05-02T20:52:15.461Z,59.13
2023-05-02T20:54:46.510Z,59.16
2023-05-02T20:57:18.017Z,59.18
2023-05-02T20:59:53.800Z,59.14
2023-05-02T21:02:26.977Z,59.25
2023-05-02T21:04:57.763Z,58.94
2023-05-02T21:07:30.429Z,59.02
2023-05-02T21:10:01.190Z,59.31
2023-05-02T21:12:31.541Z,59.10
2023-05-02T21:15:01.690Z,59.35
2023-05-02T21:17:31.926Z,59.07
2023-05-02T21:20:05.139Z,59.28
2023-05-02T21:22:38.073Z,59.24
2023-05-02T21:25:08.933Z,58.93
2023-05-02T21:27:39.043Z,58.82
2023-05-02T21:30:10.829Z,59.05
2023-05-02T21:32:41.035Z,59.08
2023-05-02T21:35:11.624Z,59.19
2023-05-02T21:37:44.673Z,59.36
2023-05-02T21:40:16.986Z,59.46
2023-05-02T21:42:47.053Z,59.44
2023-05-02T21:45:17.350Z,59.51
2023-05-02T21:47:47.374Z,59.40
2023-05-02T21:50:17.439Z,59.29
2023-05-02T21:52:51.473Z,59.16
2023-05-02T21:55:21.644Z,59.64
2023-05-02T21:57:51.714Z,59.57
2023-05-02T22:00:21.872Z,59.43
2023-05-02T22:02:52.077Z,59.68
2023-05-02T22:05:22.334Z,59.52
2023-05-02T22:07:55.769Z,59.70
2023-05-02T22:10:26.048Z,59.93
2023-05-02T22:12:56.362Z,59.86
2023-05-02T22:15:26.324Z,59.80
2023-05-02T22:17:57.428Z,59.85
2023-05-02T22:20:28.424Z,59.88
2023-05-02T22:23:01.223Z,60.19
2023-05-02T22:25:31.227Z,60.17
2023-05-02T22:28:07.219Z,60.13
2023-05-02T22:30:37.222Z,60.08
2023-05-02T22:33:07.627Z,60.12
2023-05-02T22:35:38.909Z,60.24
2023-05-02T22:38:11.876Z,60.13
2023-05-02T22:40:42.043Z,60.13
2023-05-02T22:43:12.048Z,60.26
2023-05-02T22:45:42.184Z,60.26
2023-05-02T22:48:12.259Z,60.35
2023-05-02T22:50:43.284Z,60.47
2023-05-02T22:53:16.072Z,60.32
2023-05-02T22:55:46.092Z,60.40
2023-05-02T22:58:17.293Z,60.65
2023-05-02T23:00:47.440Z,60.74
2023-05-02T23:03:17.645Z,60.47
2023-05-02T23:05:47.862Z,60.40
2023-05-02T23:08:21.089Z,60.71
2023-05-02T23:10:51.375Z,60.80
2023-05-02T23:13:21.459Z,60.75
2023-05-02T23:15:56.162Z,60.46
2023-05-02T23:18:38.676Z,60.83
2023-05-02T23:21:17.142Z,60.76
2023-05-02T23:23:50.250Z,60.88
2023-05-02T23:26:22.438Z,60.90
2023-05-02T23:28:52.770Z,60.68
2023-05-02T23:31:22.880Z,61.03
2023-05-02T23:33:53.261Z,60.87
2023-05-02T23:36:23.404Z,60.84
2023-05-02T23:38:56.238Z,60.99
2023-05-02T23:41:26.652Z,60.76
2023-05-02T23:43:57.236Z,60.98
2023-05-02T23:46:27.929Z,60.84
2023-05-02T23:48:57.967Z,60.87
2023-05-02T23:51:32.269Z,61.00
2023-05-02T23:54:16.200Z,60.92
2023-05-02T23:56:46.651Z,60.79
2023-05-02T23:59:18.463Z,60.68
